Time;durP1;ratioP1;P1;durP2;ratioP2;P2;SDS_P1;SDS_P2;PMS_P1;PMS_P2;Temp;Humidity;BMP_temperature;BMP_pressure;BME280_temperature;BME280_humidity;BME280_pressure;Samples;Min_cycle;Max_cycle;Signal;HPM_P1;HPM_P2
2023/07/27 00:01:30;;;;;;;12.65;10.65;;;12.70;99.90;;;;;;4975644;28;20038;-77
2023/07/27 00:03:56;;;;;;;12.38;11.07;;;12.70;99.90;;;;;;4978237;28;20045;-77
2023/07/27 00:06:22;;;;;;;13.38;11.98;;;12.70;99.90;;;;;;5010228;28;20034;-77
2023/07/27 00:08:50;;;;;;;11.77;10.57;;;12.70;99.90;;;;;;4976632;28;20057;-77
2023/07/27 00:11:16;;;;;;;12.57;11.38;;;12.70;99.90;;;;;;5006845;28;20050;-77
2023/07/27 00:13:43;;;;;;;12.38;11.10;;;12.80;99.90;;;;;;4977572;28;20077;-77
2023/07/27 00:16:09;;;;;;;10.98;9.38;;;12.70;99.90;;;;;;5010208;28;20050;-77
2023/07/27 00:18:36;;;;;;;12.52;11.25;;;12.80;99.90;;;;;;4976492;28;20097;-77
2023/07/27 00:21:03;;;;;;;12.98;11.68;;;12.90;99.90;;;;;;4958296;28;20102;-77
2023/07/27 00:23:29;;;;;;;11.55;10.10;;;12.80;99.90;;;;;;4990673;28;20039;-77
2023/07/27 00:25:56;;;;;;;10.60;9.60;;;12.80;99.90;;;;;;4970994;28;20376;-77
2023/07/27 00:28:21;;;;;;;11.52;10.27;;;12.90;99.90;;;;;;4961005;28;20042;-77
2023/07/27 00:31:08;;;;;;;12.88;11.57;;;12.90;99.90;;;;;;4977756;28;20069;-77
2023/07/27 00:33:35;;;;;;;12.25;10.95;;;13.00;99.90;;;;;;4977562;28;20092;-77
2023/07/27 00:36:04;;;;;;;12.80;11.07;;;13.00;99.90;;;;;;4976288;28;20133;-78
2023/07/27 00:38:34;;;;;;;12.38;11.07;;;13.00;99.90;;;;;;4975815;28;20042;-77
2023/07/27 00:41:02;;;;;;;12.43;11.15;;;13.00;99.90;;;;;;4992436;28;20031;-77
2023/07/27 00:43:32;;;;;;;12.57;11.27;;;13.00;99.90;;;;;;4977028;28;20089;-78
2023/07/27 00:46:00;;;;;;;14.45;12.95;;;13.10;99.90;;;;;;4976788;28;20046;-78
2023/07/27 00:48:28;;;;;;;12.00;10.80;;;13.00;99.90;;;;;;4975688;28;20045;-77
2023/07/27 00:50:55;;;;;;;13.05;11.52;;;13.00;99.90;;;;;;4976261;28;20101;-77
2023/07/27 00:53:24;;;;;;;10.10;9.10;;;13.00;99.90;;;;;;4992725;28;20050;-77
2023/07/27 00:55:53;;;;;;;12.70;11.40;;;13.00;99.90;;;;;;4976618;28;20494;-77
2023/07/27 00:58:20;;;;;;;13.15;11.85;;;13.00;99.90;;;;;;4976852;28;20387;-78
2023/07/27 01:00:47;;;;;;;12.27;11.07;;;12.90;99.90;;;;;;4991146;28;20498;-78
2023/07/27 01:03:18;;;;;;;12.02;10.93;;;12.90;99.90;;;;;;4985470;28;20582;-77
2023/07/27 01:05:45;;;;;;;12.32;11.07;;;12.90;99.90;;;;;;4976223;28;20034;-77
2023/07/27 01:08:13;;;;;;;12.52;11.23;;;13.00;99.90;;;;;;4975280;28;20344;-77
2023/07/27 01:10:52;;;;;;;12.57;11.38;;;12.90;99.90;;;;;;5005513;28;20486;-77
2023/07/27 01:13:43;;;;;;;13.38;12.07;;;13.00;99.90;;;;;;4971842;28;20533;-77
2023/07/27 01:16:22;;;;;;;12.57;10.90;;;13.00;99.90;;;;;;4990557;28;20073;-77
2023/07/27 01:19:49;;;;;;;12.82;11.52;;;13.00;99.90;;;;;;4988722;28;20046;-77
2023/07/27 01:22:31;;;;;;;12.95;11.38;;;12.90;99.90;;;;;;4919182;29;20039;-77
2023/07/27 01:25:30;;;;;;;12.90;11.52;;;12.90;99.90;;;;;;4920600;28;20531;-77
2023/07/27 01:28:20;;;;;;;12.88;11.65;;;12.90;99.90;;;;;;4989519;28;20057;-77
2023/07/27 01:30:58;;;;;;;13.48;12.07;;;12.80;99.90;;;;;;4977577;28;20520;-77
2023/07/27 01:33:35;;;;;;;13.10;11.90;;;12.90;99.90;;;;;;5001600;28;20045;-78
2023/07/27 01:36:23;;;;;;;14.18;12.77;;;13.00;99.90;;;;;;4991748;28;20462;-78
2023/07/27 01:38:59;;;;;;;13.63;12.15;;;12.90;99.90;;;;;;4974860;28;20038;-78
2023/07/27 01:41:28;;;;;;;;;;;12.90;99.90;;;;;;4993908;28;20093;-77
2023/07/27 01:44:00;;;;;;;13.55;12.15;;;12.90;99.90;;;;;;5007909;28;19919;-77
2023/07/27 01:46:31;;;;;;;15.40;13.82;;;12.90;99.90;;;;;;4992258;28;20041;-77
2023/07/27 01:49:01;;;;;;;13.95;12.65;;;12.80;99.90;;;;;;4974732;28;20467;-77
2023/07/27 01:51:28;;;;;;;13.80;12.50;;;13.00;99.90;;;;;;5008303;28;20054;-77
2023/07/27 01:53:55;;;;;;;14.13;12.82;;;12.90;99.90;;;;;;4974801;28;20046;-77
2023/07/27 01:56:26;;;;;;;13.20;11.90;;;12.90;99.90;;;;;;4987202;28;20062;-77
2023/07/27 01:58:59;;;;;;;13.63;12.23;;;13.00;99.90;;;;;;4987913;28;20043;-78
2023/07/27 02:01:27;;;;;;;13.23;12.02;;;12.90;99.90;;;;;;4978916;28;20038;-78
2023/07/27 02:03:57;;;;;;;12.50;11.40;;;12.90;99.90;;;;;;4978580;28;20033;-77
2023/07/27 02:06:24;;;;;;;13.68;12.30;;;12.90;99.90;;;;;;4973826;28;20038;-77
2023/07/27 02:08:52;;;;;;;13.90;12.60;;;13.00;99.90;;;;;;5006317;28;20042;-78
2023/07/27 02:11:20;;;;;;;13.20;11.90;;;12.90;99.90;;;;;;4975254;28;20042;-78
2023/07/27 02:14:27;;;;;;;13.70;12.43;;;12.80;99.90;;;;;;4975828;28;20042;-78
2023/07/27 02:16:57;;;;;;;15.30;13.70;;;12.90;99.90;;;;;;5007708;28;20469;-78
2023/07/27 02:19:31;;;;;;;13.85;12.50;;;12.90;99.90;;;;;;4968653;28;20120;-78
2023/07/27 02:22:00;;;;;;;14.07;12.77;;;13.00;99.90;;;;;;5008507;28;20038;-78
2023/07/27 02:24:27;;;;;;;15.20;13.68;;;13.00;99.90;;;;;;4975201;28;20088;-77
2023/07/27 02:26:55;;;;;;;15.15;13.65;;;13.00;99.90;;;;;;4977094;28;20406;-78
2023/07/27 02:29:22;;;;;;;14.43;13.02;;;13.00;99.90;;;;;;4977525;28;20045;-77
2023/07/27 02:31:49;;;;;;;15.25;13.68;;;13.00;99.90;;;;;;4974980;28;20046;-77
2023/07/27 02:34:17;;;;;;;15.55;13.75;;;13.00;99.90;;;;;;4974705;28;20459;-77
2023/07/27 02:36:43;;;;;;;14.88;13.45;;;13.00;99.90;;;;;;4974688;28;20038;-77
2023/07/27 02:39:09;;;;;;;14.02;12.70;;;13.00;99.90;;;;;;5006213;28;20034;-77
2023/07/27 02:41:36;;;;;;;15.27;13.88;;;13.00;99.90;;;;;;5007574;28;20500;-77
2023/07/27 02:44:03;;;;;;;14.68;13.18;;;13.10;99.90;;;;;;5007206;28;20093;-77
2023/07/27 02:46:30;;;;;;;16.00;14.32;;;13.10;99.90;;;;;;4991880;28;20038;-77
2023/07/27 02:48:56;;;;;;;14.30;12.80;;;13.10;99.90;;;;;;4974776;28;20046;-77
2023/07/27 02:51:23;;;;;;;16.42;14.73;;;13.10;99.90;;;;;;4974798;28;20042;-78
2023/07/27 02:53:49;;;;;;;16.13;14.45;;;13.10;99.90;;;;;;5007380;28;20056;-78
2023/07/27 02:56:16;;;;;;;15.60;14.00;;;13.10;99.90;;;;;;4974824;28;20050;-78
2023/07/27 02:58:43;;;;;;;16.42;14.68;;;13.20;99.90;;;;;;4970862;28;20053;-78
2023/07/27 03:01:09;;;;;;;16.85;15.15;;;13.10;99.90;;;;;;4989466;28;20038;-78
2023/07/27 03:03:35;;;;;;;17.95;16.05;;;13.10;99.90;;;;;;4974746;28;20098;-77
2023/07/27 03:06:03;;;;;;;17.83;15.93;;;13.10;99.90;;;;;;5007119;28;20093;-77
2023/07/27 03:08:31;;;;;;;25.67;18.77;;;13.20;99.90;;;;;;4974382;28;20065;-77
2023/07/27 03:11:04;;;;;;;18.30;15.95;;;13.10;99.90;;;;;;4972902;28;20038;-77
2023/07/27 03:13:36;;;;;;;19.00;17.00;;;13.10;99.90;;;;;;4974504;28;20043;-77
2023/07/27 03:16:04;;;;;;;20.77;18.58;;;13.10;99.90;;;;;;4974549;28;20042;-77
2023/07/27 03:18:31;;;;;;;18.08;16.08;;;13.20;99.90;;;;;;4973540;28;20125;-77
2023/07/27 03:20:57;;;;;;;21.08;18.80;;;13.10;99.90;;;;;;4975164;28;20050;-78
2023/07/27 03:23:23;;;;;;;24.42;21.20;;;13.20;99.90;;;;;;4973546;28;20042;-78
2023/07/27 03:25:50;;;;;;;19.48;17.30;;;13.10;99.90;;;;;;4973668;28;20066;-78
2023/07/27 03:28:16;;;;;;;21.50;18.05;;;13.10;99.90;;;;;;4965695;28;20088;-78
2023/07/27 03:30:43;;;;;;;21.25;18.35;;;13.20;99.90;;;;;;4977136;28;20402;-76
2023/07/27 03:33:11;;;;;;;19.98;17.90;;;13.10;99.90;;;;;;4977676;28;20457;-77
2023/07/27 03:35:38;;;;;;;19.30;17.23;;;13.10;99.90;;;;;;4972958;28;20046;-77
2023/07/27 03:38:05;;;;;;;23.67;20.02;;;13.10;99.90;;;;;;4972246;28;20043;-77
2023/07/27 03:40:31;;;;;;;24.17;19.95;;;13.10;99.90;;;;;;4995474;23;20406;-75
2023/07/27 03:42:56;;;;;;;25.00;20.83;;;13.10;99.90;;;;;;5019790;28;20033;-76
2023/07/27 03:45:22;;;;;;;34.58;23.88;;;13.20;99.90;;;;;;5019006;28;20179;-76
2023/07/27 03:47:47;;;;;;;26.50;21.80;;;13.10;99.90;;;;;;4984476;28;20038;-76
2023/07/27 03:50:13;;;;;;;23.13;20.52;;;13.10;99.90;;;;;;4985244;28;20042;-76
2023/07/27 03:52:39;;;;;;;27.60;22.60;;;13.10;99.90;;;;;;4992555;28;20046;-76
2023/07/27 03:55:05;;;;;;;28.02;22.67;;;13.10;99.90;;;;;;4993360;28;20040;-76
2023/07/27 03:57:32;;;;;;;29.15;22.92;;;13.10;99.90;;;;;;4985752;28;20064;-76
2023/07/27 03:59:58;;;;;;;25.35;22.02;;;13.10;99.90;;;;;;4968423;28;20131;-76
2023/07/27 04:02:26;;;;;;;24.35;21.67;;;13.10;99.90;;;;;;4995926;28;20123;-76
2023/07/27 04:04:52;;;;;;;31.13;23.80;;;13.10;99.90;;;;;;4993827;28;20523;-76
2023/07/27 04:07:21;;;;;;;25.25;22.17;;;13.10;99.90;;;;;;4993550;28;20125;-76
2023/07/27 04:09:46;;;;;;;27.05;23.15;;;13.10;99.90;;;;;;4984908;28;20038;-76
2023/07/27 04:12:13;;;;;;;22.88;20.48;;;13.10;99.90;;;;;;4983625;28;20093;-76
2023/07/27 04:14:38;;;;;;;23.92;21.20;;;13.10;99.90;;;;;;4979403;28;20402;-76
2023/07/27 04:17:05;;;;;;;28.77;23.48;;;13.10;99.90;;;;;;4966628;28;20080;-76
2023/07/27 04:19:30;;;;;;;30.58;24.40;;;13.10;99.90;;;;;;4970464;28;20458;-76
2023/07/27 04:21:56;;;;;;;29.25;23.05;;;13.10;99.90;;;;;;4979893;28;20074;-76
2023/07/27 04:24:22;;;;;;;25.60;21.48;;;13.10;99.90;;;;;;4981150;28;20411;-76
2023/07/27 04:26:47;;;;;;;26.80;22.35;;;13.10;99.90;;;;;;4973753;28;20035;-76
2023/07/27 04:29:13;;;;;;;26.45;21.77;;;13.20;99.90;;;;;;4981176;28;20034;-76
2023/07/27 04:31:38;;;;;;;26.15;22.35;;;13.20;99.90;;;;;;4993479;28;20069;-76
2023/07/27 04:34:05;;;;;;;54.15;32.30;;;13.20;99.90;;;;;;4993136;28;20046;-76
2023/07/27 04:36:30;;;;;;;24.85;21.90;;;13.20;99.90;;;;;;4976831;28;20038;-76
2023/07/27 04:38:56;;;;;;;24.35;21.40;;;13.20;99.90;;;;;;4991761;28;20046;-76
2023/07/27 04:41:22;;;;;;;24.70;22.08;;;13.30;99.90;;;;;;4985733;28;20039;-76
2023/07/27 04:43:47;;;;;;;39.00;27.25;;;13.30;99.90;;;;;;4988315;28;20034;-75
2023/07/27 04:46:13;;;;;;;21.90;19.60;;;13.30;99.90;;;;;;4975034;28;20074;-76
2023/07/27 04:48:38;;;;;;;28.25;22.20;;;13.40;99.90;;;;;;4991623;28;20498;-76
2023/07/27 04:51:04;;;;;;;21.45;19.23;;;13.40;99.90;;;;;;4982975;28;20170;-76
2023/07/27 04:53:30;;;;;;;22.25;19.65;;;13.40;99.90;;;;;;4973535;28;20038;-76
2023/07/27 04:55:55;;;;;;;21.75;18.60;;;13.40;99.90;;;;;;4977550;28;20100;-75
2023/07/27 04:58:21;;;;;;;23.30;20.70;;;13.40;99.90;;;;;;4987688;28;20081;-76
2023/07/27 05:00:57;;;;;;;23.98;19.30;;;13.50;99.90;;;;;;4972531;28;20073;-75
2023/07/27 05:03:23;;;;;;;21.40;17.70;;;13.50;99.90;;;;;;4965331;28;20448;-75
2023/07/27 05:05:48;;;;;;;24.38;19.75;;;13.50;99.90;;;;;;4984006;28;20124;-75
2023/07/27 05:08:14;;;;;;;22.13;19.77;;;13.60;99.90;;;;;;4972096;28;20039;-75
2023/07/27 05:10:40;;;;;;;24.10;20.00;;;13.60;99.90;;;;;;4983913;28;20077;-76
2023/07/27 05:13:09;;;;;;;26.85;21.45;;;13.60;99.90;;;;;;4968539;28;20045;-75
2023/07/27 05:15:35;;;;;;;28.90;23.75;;;13.60;99.90;;;;;;4990432;28;20042;-76
2023/07/27 05:18:00;;;;;;;27.05;22.60;;;13.60;99.90;;;;;;4966609;28;20042;-75
2023/07/27 05:20:26;;;;;;;33.67;26.05;;;13.60;99.90;;;;;;5020462;28;20042;-75
2023/07/27 05:22:51;;;;;;;26.77;22.38;;;13.60;99.90;;;;;;4984078;28;20047;-76
2023/07/27 05:25:17;;;;;;;34.33;25.20;;;13.60;99.90;;;;;;4978467;28;20039;-74
2023/07/27 05:27:43;;;;;;;32.90;24.55;;;13.70;99.90;;;;;;4987035;28;20045;-75
2023/07/27 05:30:09;;;;;;;38.92;25.42;;;13.60;99.90;;;;;;5006836;28;20050;-75
2023/07/27 05:32:34;;;;;;;24.55;21.60;;;13.70;99.90;;;;;;4975924;28;20034;-76
2023/07/27 05:35:00;;;;;;;41.22;28.20;;;13.70;99.90;;;;;;4989683;28;20046;-75
2023/07/27 05:37:27;;;;;;;25.83;22.48;;;13.70;99.90;;;;;;4983006;28;20042;-74
2023/07/27 05:39:52;;;;;;;30.00;24.25;;;13.80;99.90;;;;;;4981089;28;20042;-74
2023/07/27 05:42:18;;;;;;;43.97;30.48;;;13.80;99.90;;;;;;4967495;28;20046;-75
2023/07/27 05:44:43;;;;;;;45.75;29.55;;;13.80;99.90;;;;;;4984275;28;20046;-75
2023/07/27 05:47:09;;;;;;;31.48;25.90;;;13.80;99.90;;;;;;4988522;28;20038;-75
2023/07/27 05:49:35;;;;;;;27.65;24.02;;;13.80;99.90;;;;;;4983736;28;20054;-75
2023/07/27 05:52:00;;;;;;;29.17;25.85;;;13.80;99.90;;;;;;4991202;28;20453;-75
2023/07/27 05:54:26;;;;;;;51.47;31.42;;;13.80;99.90;;;;;;4984141;28;20501;-74
2023/07/27 05:56:51;;;;;;;45.53;30.98;;;13.80;99.90;;;;;;4981910;28;20077;-74
2023/07/27 05:59:17;;;;;;;38.15;27.45;;;13.80;99.90;;;;;;4987684;28;20532;-75
2023/07/27 06:01:42;;;;;;;32.00;27.10;;;13.80;99.90;;;;;;4988899;28;20054;-75
2023/07/27 06:04:08;;;;;;;37.80;28.85;;;13.80;99.90;;;;;;4991447;28;20030;-75
2023/07/27 06:06:35;;;;;;;43.08;31.10;;;13.90;99.90;;;;;;4987671;28;20042;-76
2023/07/27 06:09:02;;;;;;;46.60;32.70;;;13.90;99.90;;;;;;4968458;28;20121;-75
2023/07/27 06:11:28;;;;;;;34.13;29.52;;;13.90;99.90;;;;;;4987567;28;20062;-74
2023/07/27 06:13:54;;;;;;;36.35;30.08;;;14.00;99.90;;;;;;4987787;28;20045;-76
2023/07/27 06:16:19;;;;;;;43.53;33.67;;;14.00;99.90;;;;;;4970712;28;20089;-74
2023/07/27 06:18:45;;;;;;;44.85;33.10;;;14.00;99.90;;;;;;4990479;28;20057;-74
2023/07/27 06:21:10;;;;;;;45.13;34.60;;;14.10;99.90;;;;;;4991309;28;20042;-74
2023/07/27 06:23:36;;;;;;;33.10;29.52;;;14.10;99.90;;;;;;4990521;28;20043;-75
2023/07/27 06:26:02;;;;;;;40.53;33.33;;;14.10;99.90;;;;;;4989619;28;20038;-75
2023/07/27 06:28:27;;;;;;;57.10;39.17;;;14.10;99.90;;;;;;4991496;28;20384;-75
2023/07/27 06:30:53;;;;;;;34.35;30.73;;;14.20;99.90;;;;;;4991060;28;20540;-75
2023/07/27 06:33:19;;;;;;;37.15;31.58;;;14.20;99.90;;;;;;4991222;28;20046;-75
2023/07/27 06:35:44;;;;;;;37.28;33.25;;;14.20;99.90;;;;;;4990984;28;20042;-75
2023/07/27 06:38:10;;;;;;;35.40;31.63;;;14.30;99.90;;;;;;4991300;28;20092;-75
2023/07/27 06:40:36;;;;;;;41.00;34.10;;;14.30;99.90;;;;;;4990956;28;20038;-75
2023/07/27 06:43:01;;;;;;;37.45;32.28;;;14.30;99.90;;;;;;4991218;28;20042;-75
2023/07/27 06:45:27;;;;;;;42.47;34.05;;;14.40;99.90;;;;;;4990987;28;20034;-75
2023/07/27 06:47:53;;;;;;;46.13;35.70;;;14.40;99.90;;;;;;4974744;28;20424;-75
2023/07/27 06:50:18;;;;;;;37.63;32.22;;;14.40;99.90;;;;;;4974712;28;20134;-75
2023/07/27 06:52:44;;;;;;;44.70;34.70;;;14.40;99.90;;;;;;4974830;28;20046;-75
2023/07/27 06:55:10;;;;;;;53.38;37.92;;;14.40;99.90;;;;;;4990986;28;20046;-75
2023/07/27 06:57:36;;;;;;;58.80;39.40;;;14.40;99.90;;;;;;4990698;28;20042;-75
2023/07/27 07:00:02;;;;;;;64.22;40.97;;;14.40;99.90;;;;;;4974523;28;20125;-75
2023/07/27 07:02:28;;;;;;;37.40;32.13;;;14.50;99.90;;;;;;4990950;28;20046;-75
2023/07/27 07:04:54;;;;;;;48.90;35.70;;;14.50;99.90;;;;;;4991178;28;20039;-75
2023/07/27 07:07:19;;;;;;;29.15;26.10;;;14.50;99.90;;;;;;4990664;28;20041;-75
2023/07/27 07:09:46;;;;;;;27.38;24.73;;;14.60;99.90;;;;;;4990846;28;20466;-75
2023/07/27 07:12:12;;;;;;;57.47;30.45;;;14.50;99.90;;;;;;4990832;28;20042;-75
2023/07/27 07:14:37;;;;;;;42.33;29.73;;;14.50;99.90;;;;;;4990759;28;20038;-75
2023/07/27 07:17:03;;;;;;;28.75;25.75;;;14.50;99.90;;;;;;4990801;28;20394;-75
2023/07/27 07:19:29;;;;;;;30.00;24.92;;;14.50;99.90;;;;;;4978389;28;20053;-75
2023/07/27 07:21:54;;;;;;;35.15;26.75;;;14.50;99.90;;;;;;4994688;28;20065;-75
2023/07/27 07:24:20;;;;;;;69.60;37.17;;;14.50;99.90;;;;;;4994695;28;20104;-75
2023/07/27 07:26:45;;;;;;;42.95;29.23;;;14.60;99.90;;;;;;4994301;28;20042;-75
2023/07/27 07:29:11;;;;;;;28.92;25.00;;;14.50;99.90;;;;;;4994337;28;20038;-75
2023/07/27 07:31:38;;;;;;;27.13;23.77;;;14.60;99.90;;;;;;4994469;28;20038;-74
2023/07/27 07:34:03;;;;;;;36.63;26.38;;;14.60;99.90;;;;;;4994407;28;20045;-74
2023/07/27 07:36:29;;;;;;;28.52;23.77;;;14.60;99.90;;;;;;4994201;28;20044;-75
2023/07/27 07:38:55;;;;;;;32.30;23.17;;;14.60;99.90;;;;;;4994376;28;20050;-74
2023/07/27 07:41:20;;;;;;;22.38;19.75;;;14.60;99.90;;;;;;4994141;28;20053;-74
2023/07/27 07:43:46;;;;;;;32.03;24.15;;;14.60;99.90;;;;;;4994223;28;20038;-74
2023/07/27 07:46:13;;;;;;;21.55;19.25;;;14.70;99.90;;;;;;4993960;28;20118;-74
2023/07/27 07:48:39;;;;;;;20.02;17.98;;;14.70;99.90;;;;;;4994492;28;20522;-74
2023/07/27 07:51:15;;;;;;;19.73;17.77;;;14.70;99.90;;;;;;4994032;28;20045;-74
2023/07/27 07:53:41;;;;;;;31.05;22.55;;;14.80;99.90;;;;;;4977822;28;20498;-74
2023/07/27 07:56:14;;;;;;;16.23;14.65;;;14.70;99.90;;;;;;4993672;28;20117;-75
2023/07/27 07:58:40;;;;;;;16.55;14.82;;;14.70;99.90;;;;;;4994125;28;20038;-74
2023/07/27 08:01:06;;;;;;;21.13;17.42;;;14.70;99.90;;;;;;4977659;28;20038;-74
2023/07/27 08:03:32;;;;;;;31.02;21.00;;;14.70;99.90;;;;;;4993891;28;20042;-74
2023/07/27 08:05:58;;;;;;;25.30;18.88;;;14.70;99.90;;;;;;4993909;28;20042;-74
2023/07/27 08:08:24;;;;;;;19.15;17.08;;;14.70;99.90;;;;;;4993729;28;20038;-74
2023/07/27 08:10:50;;;;;;;17.58;14.55;;;14.70;99.90;;;;;;4993621;28;20039;-74
2023/07/27 08:13:15;;;;;;;33.47;20.23;;;14.80;99.90;;;;;;4993874;28;20038;-74
2023/07/27 08:15:53;;;;;;;13.88;12.48;;;14.70;99.90;;;;;;4993664;28;20034;-74
2023/07/27 08:18:19;;;;;;;30.98;19.83;;;14.80;99.90;;;;;;4993598;28;20132;-74
2023/07/27 08:20:44;;;;;;;23.65;18.73;;;14.90;99.90;;;;;;4993558;28;20121;-74
2023/07/27 08:23:10;;;;;;;13.95;12.63;;;14.90;99.90;;;;;;4993542;28;20065;-74
2023/07/27 08:25:42;;;;;;;12.88;11.65;;;15.00;99.90;;;;;;4993341;28;20097;-74
2023/07/27 08:28:07;;;;;;;20.05;16.13;;;15.10;99.90;;;;;;4993810;28;20380;-74
2023/07/27 08:30:33;;;;;;;15.90;13.82;;;15.10;99.90;;;;;;4992883;28;20074;-74
2023/07/27 08:32:58;;;;;;;12.20;11.15;;;15.20;99.90;;;;;;4993437;28;20046;-74
2023/07/27 08:35:24;;;;;;;18.05;13.30;;;15.20;99.90;;;;;;4993402;28;20050;-74
2023/07/27 08:37:50;;;;;;;16.17;14.48;;;15.20;99.90;;;;;;4993111;28;20375;-74
2023/07/27 08:40:15;;;;;;;11.20;10.20;;;15.30;99.90;;;;;;4992848;28;20077;-74
2023/07/27 08:42:43;;;;;;;11.70;10.60;;;15.30;99.90;;;;;;4993325;28;20479;-74
2023/07/27 08:45:13;;;;;;;16.05;14.18;;;15.30;99.90;;;;;;4993117;28;20046;-74
2023/07/27 08:47:40;;;;;;;19.65;16.80;;;15.40;99.90;;;;;;4992860;28;20082;-74
2023/07/27 08:50:07;;;;;;;11.45;10.40;;;15.50;99.90;;;;;;4992958;28;20050;-74
2023/07/27 08:52:32;;;;;;;13.30;12.02;;;15.60;99.90;;;;;;4993159;28;20064;-74
2023/07/27 08:54:58;;;;;;;13.20;12.00;;;15.70;99.90;;;;;;4992959;28;20503;-74
2023/07/27 08:57:24;;;;;;;13.88;12.55;;;15.80;99.90;;;;;;4992689;28;20558;-74
2023/07/27 08:59:50;;;;;;;16.20;14.45;;;15.80;99.90;;;;;;4992718;28;20047;-74
2023/07/27 09:02:16;;;;;;;11.80;10.90;;;15.90;99.90;;;;;;4992822;28;20042;-74
2023/07/27 09:04:42;;;;;;;15.60;14.18;;;16.00;99.90;;;;;;4992784;28;20461;-74
2023/07/27 09:07:07;;;;;;;15.38;14.00;;;16.20;99.90;;;;;;4992405;28;20042;-74
2023/07/27 09:09:33;;;;;;;10.48;9.68;;;16.30;99.90;;;;;;4992518;28;20125;-74
2023/07/27 09:11:59;;;;;;;13.95;12.50;;;16.30;99.90;;;;;;4992926;28;20038;-74
2023/07/27 09:14:24;;;;;;;11.73;10.65;;;16.40;99.90;;;;;;4992585;28;20042;-74
2023/07/27 09:16:50;;;;;;;9.38;8.57;;;16.40;99.90;;;;;;4976193;28;20042;-74
2023/07/27 09:19:20;;;;;;;10.32;9.45;;;16.40;99.90;;;;;;4992360;28;20042;-74
2023/07/27 09:21:52;;;;;;;9.82;9.02;;;16.50;99.90;;;;;;4992574;28;20129;-74
2023/07/27 09:24:18;;;;;;;10.43;9.53;;;16.50;99.90;;;;;;4960159;28;20093;-74
2023/07/27 09:26:51;;;;;;;10.07;9.23;;;16.60;99.90;;;;;;4992128;28;20034;-74
2023/07/27 09:29:19;;;;;;;8.25;7.63;;;16.70;99.90;;;;;;4992435;28;20101;-74
2023/07/27 09:31:51;;;;;;;10.93;9.93;;;16.80;99.90;;;;;;4992301;28;20109;-74
2023/07/27 09:34:18;;;;;;;10.13;9.23;;;16.70;99.90;;;;;;4992094;28;20094;-74
2023/07/27 09:36:44;;;;;;;6.80;6.30;;;16.80;99.90;;;;;;4991966;28;20038;-74
2023/07/27 09:39:10;;;;;;;7.40;6.78;;;16.70;99.90;;;;;;4991901;28;20053;-74
2023/07/27 09:41:43;;;;;;;11.35;10.27;;;16.90;99.90;;;;;;4991912;28;20394;-74
2023/07/27 09:44:15;;;;;;;8.43;7.78;;;17.00;99.90;;;;;;4992264;28;20046;-73
2023/07/27 09:46:45;;;;;;;10.32;9.40;;;17.00;99.90;;;;;;4991704;28;20049;-73
2023/07/27 09:49:15;;;;;;;8.80;8.10;;;17.10;99.90;;;;;;4959526;28;20105;-74
2023/07/27 09:51:41;;;;;;;9.18;8.45;;;17.20;99.90;;;;;;4959666;28;20038;-73
2023/07/27 09:54:07;;;;;;;10.27;9.40;;;17.20;99.90;;;;;;4991785;28;20050;-73
2023/07/27 09:56:33;;;;;;;7.88;7.32;;;17.40;99.90;;;;;;4991595;28;20069;-73
2023/07/27 09:58:59;;;;;;;8.75;8.07;;;17.50;99.90;;;;;;4991772;28;20396;-73
2023/07/27 10:01:26;;;;;;;9.18;8.38;;;17.50;99.90;;;;;;4991639;28;20041;-74
2023/07/27 10:03:57;;;;;;;9.40;8.60;;;17.60;99.90;;;;;;4991708;28;20049;-74
2023/07/27 10:06:24;;;;;;;12.43;11.23;;;17.60;99.90;;;;;;4991423;28;20034;-73
2023/07/27 10:08:50;;;;;;;9.48;8.77;;;17.60;99.90;;;;;;4991546;28;20046;-74
2023/07/27 10:11:16;;;;;;;11.82;10.73;;;17.60;99.90;;;;;;4991536;28;20048;-74
2023/07/27 10:13:43;;;;;;;11.32;10.43;;;17.60;99.90;;;;;;4991394;28;20054;-74
2023/07/27 10:16:11;;;;;;;9.93;9.13;;;17.60;99.90;;;;;;4991497;28;20458;-74
2023/07/27 10:18:41;;;;;;;9.98;9.27;;;17.60;99.90;;;;;;4991387;28;20039;-73
2023/07/27 10:21:24;;;;;;;10.43;9.63;;;17.50;99.90;;;;;;4991322;28;20241;-73
2023/07/27 10:23:54;;;;;;;9.63;8.93;;;17.60;99.90;;;;;;4991371;28;20044;-74
2023/07/27 10:26:21;;;;;;;9.10;8.50;;;17.70;99.90;;;;;;4991067;28;20093;-74
2023/07/27 10:28:48;;;;;;;9.27;8.68;;;17.80;99.90;;;;;;4991337;28;20046;-73
2023/07/27 10:31:14;;;;;;;12.73;11.63;;;17.80;99.90;;;;;;4991193;28;20042;-73
2023/07/27 10:33:47;;;;;;;8.70;8.00;;;17.80;99.90;;;;;;4991464;28;20085;-74
2023/07/27 10:36:14;;;;;;;13.07;11.98;;;17.80;99.90;;;;;;4991023;28;20129;-74
2023/07/27 10:38:39;;;;;;;9.65;8.85;;;17.70;99.90;;;;;;4991029;28;20530;-74
2023/07/27 10:41:15;;;;;;;9.55;8.82;;;17.60;99.90;;;;;;4990948;28;20081;-74
2023/07/27 10:44:06;;;;;;;9.77;8.88;;;17.70;99.90;;;;;;4991030;28;20077;-73
2023/07/27 10:46:32;;;;;;;11.27;10.35;;;17.60;99.90;;;;;;4990883;28;20049;-74
2023/07/27 10:49:06;;;;;;;15.68;13.82;;;17.70;99.90;;;;;;4991148;28;20046;-74
2023/07/27 10:51:32;;;;;;;14.27;13.07;;;17.70;99.90;;;;;;4991222;28;20134;-74
2023/07/27 10:53:58;;;;;;;13.57;12.52;;;17.80;99.90;;;;;;4990997;28;20074;-74
2023/07/27 10:56:25;;;;;;;13.18;12.02;;;17.90;99.90;;;;;;4990755;28;20077;-74
2023/07/27 10:59:00;;;;;;;9.85;9.13;;;18.00;99.90;;;;;;4990930;28;20038;-74
2023/07/27 11:01:26;;;;;;;11.02;10.15;;;18.10;99.90;;;;;;4974797;28;20491;-73
2023/07/27 11:03:55;;;;;;;10.05;9.35;;;18.10;99.90;;;;;;4990917;28;20273;-74
2023/07/27 11:06:20;;;;;;;14.88;11.35;;;18.20;99.90;;;;;;4990939;28;20391;-74
2023/07/27 11:08:46;;;;;;;13.02;11.82;;;18.10;99.90;;;;;;4974724;28;20041;-74
2023/07/27 11:11:19;;;;;;;9.02;8.43;;;18.20;99.90;;;;;;4990837;28;20038;-73
2023/07/27 11:13:45;;;;;;;10.00;9.23;;;18.20;99.90;;;;;;4990888;28;20097;-73
2023/07/27 11:16:13;;;;;;;9.38;8.70;;;18.30;99.90;;;;;;4990576;28;20097;-73
2023/07/27 11:18:40;;;;;;;9.32;8.63;;;18.30;99.90;;;;;;4990761;28;20054;-73
2023/07/27 11:21:11;;;;;;;8.70;8.10;;;18.50;99.90;;;;;;4974637;28;20093;-74
2023/07/27 11:23:43;;;;;;;14.77;13.40;;;18.60;99.90;;;;;;4991058;28;20069;-73
2023/07/27 11:26:08;;;;;;;7.22;6.72;;;18.80;99.90;;;;;;4974365;28;20050;-73
2023/07/27 11:28:34;;;;;;;8.07;7.47;;;19.00;99.90;;;;;;4990773;28;20050;-74
2023/07/27 11:31:00;;;;;;;6.32;5.93;;;19.20;99.90;;;;;;4990539;28;20042;-74
2023/07/27 11:33:36;;;;;;;8.25;7.65;;;19.20;99.90;;;;;;4974722;28;20065;-74
2023/07/27 11:36:02;;;;;;;6.90;6.40;;;19.30;99.90;;;;;;4990593;28;20054;-74
2023/07/27 11:38:28;;;;;;;7.40;6.90;;;19.40;99.90;;;;;;4990560;28;20042;-74
2023/07/27 11:40:57;;;;;;;6.22;5.72;;;19.50;99.90;;;;;;4974267;28;20045;-74
2023/07/27 11:43:27;;;;;;;5.85;5.35;;;19.70;99.90;;;;;;4990551;28;20070;-74
2023/07/27 11:45:56;;;;;;;4.75;4.45;;;19.70;99.90;;;;;;4990825;28;20387;-74
2023/07/27 11:48:27;;;;;;;4.35;4.05;;;19.70;99.90;;;;;;4990797;28;20116;-74
2023/07/27 11:51:02;;;;;;;4.18;3.80;;;19.70;99.90;;;;;;4990335;28;20042;-74
2023/07/27 11:53:28;;;;;;;5.03;4.60;;;19.70;99.90;;;;;;4990531;28;20100;-74
2023/07/27 11:55:57;;;;;;;4.60;3.90;;;19.70;99.90;;;;;;4990301;28;20102;-74
2023/07/27 11:58:26;;;;;;;4.63;4.20;;;19.80;99.90;;;;;;4974141;28;20513;-74
2023/07/27 12:00:54;;;;;;;4.22;3.85;;;19.90;99.90;;;;;;4990298;28;20067;-74
2023/07/27 12:03:22;;;;;;;5.75;5.25;;;19.90;99.90;;;;;;4974229;28;20502;-74
2023/07/27 12:05:47;;;;;;;4.60;4.20;;;19.90;99.90;;;;;;4992848;28;20046;-74
2023/07/27 12:08:20;;;;;;;8.38;7.57;;;19.80;99.90;;;;;;4993843;28;20550;-74
2023/07/27 12:10:59;;;;;;;7.28;6.40;;;19.70;99.90;;;;;;4993863;28;20085;-74
2023/07/27 12:13:26;;;;;;;8.68;7.82;;;19.60;99.90;;;;;;4994062;28;20053;-74
2023/07/27 12:16:03;;;;;;;9.00;8.00;;;19.50;99.90;;;;;;4993505;28;20034;-74
2023/07/27 12:18:30;;;;;;;7.47;6.78;;;19.40;99.90;;;;;;4993595;28;20082;-74
2023/07/27 12:20:57;;;;;;;6.90;6.30;;;19.30;99.90;;;;;;4993358;28;20109;-74
2023/07/27 12:23:24;;;;;;;7.32;6.63;;;19.30;99.90;;;;;;4977355;28;20494;-74
2023/07/27 12:25:52;;;;;;;8.80;7.80;;;19.20;99.90;;;;;;4993272;28;20034;-74
2023/07/27 12:28:17;;;;;;;8.27;7.35;;;19.30;99.90;;;;;;4961573;28;20097;-74
2023/07/27 12:30:44;;;;;;;8.95;7.78;;;19.30;99.90;;;;;;4993647;28;20042;-74
2023/07/27 12:33:10;;;;;;;7.75;6.07;;;19.40;99.90;;;;;;4993369;28;20474;-74
2023/07/27 12:35:35;;;;;;;8.63;7.72;;;19.50;99.90;;;;;;4993135;28;20403;-74